createdAt,value
2022-11-12T00:09:26.227Z,2.80
2022-11-12T00:24:46.109Z,2.80
2022-11-12T00:40:05.953Z,3.90
2022-11-12T00:55:25.691Z,3.78
2022-11-12T01:10:45.458Z,3.65
2022-11-12T01:26:05.391Z,3.40
2022-11-12T01:41:25.134Z,3.10
2022-11-12T01:56:44.955Z,3.80
2022-11-12T02:12:04.854Z,5.17
2022-11-12T02:27:24.627Z,4.77
2022-11-12T02:42:44.442Z,4.83
2022-11-12T02:58:04.039Z,4.97
2022-11-12T03:13:23.774Z,5.83
2022-11-12T03:28:43.563Z,5.27
2022-11-12T03:44:03.317Z,5.13
2022-11-12T03:59:23.199Z,3.03
2022-11-12T04:14:43.082Z,4.80
2022-11-12T04:30:19.333Z,4.00
2022-11-12T04:45:39.071Z,3.45
2022-11-12T05:00:58.751Z,4.70
2022-11-12T05:16:18.553Z,3.57
2022-11-12T05:31:38.412Z,5.32
2022-11-12T05:46:58.372Z,6.33
2022-11-12T06:02:18.175Z,5.33
2022-11-12T06:17:39.604Z,5.93
2022-11-12T06:32:59.541Z,6.03
2022-11-12T06:48:19.437Z,7.43
2022-11-12T07:03:39.200Z,6.22
2022-11-12T07:18:58.886Z,5.55
2022-11-12T07:34:18.703Z,5.13
2022-11-12T07:49:38.630Z,5.32
2022-11-12T08:04:58.491Z,5.93
2022-11-12T08:20:18.384Z,7.03
2022-11-12T08:35:38.470Z,5.20
2022-11-12T08:50:58.572Z,3.80
2022-11-12T09:06:18.675Z,3.80
2022-11-12T09:21:38.443Z,3.97
2022-11-12T09:36:58.312Z,4.78
2022-11-12T09:52:18.213Z,3.85
2022-11-12T10:07:38.128Z,5.30
2022-11-12T10:23:00.586Z,6.47
2022-11-12T10:38:20.661Z,8.50
2022-11-12T10:53:40.568Z,2.80
2022-11-12T11:09:00.555Z,2.67
2022-11-12T11:24:20.575Z,2.35
2022-11-12T11:39:40.297Z,2.40
2022-11-12T11:55:00.139Z,2.30
2022-11-12T12:10:19.805Z,2.15
2022-11-12T12:25:39.738Z,2.35
2022-11-12T12:41:01.840Z,2.40
2022-11-12T12:56:21.677Z,2.78
2022-11-12T13:12:00.479Z,2.72
2022-11-12T13:43:31.449Z,2.92
2022-11-12T14:14:11.171Z,3.10
2022-11-12T14:29:34.820Z,2.15
2022-11-12T14:44:56.483Z,2.40
2022-11-12T15:00:16.405Z,2.30
2022-11-12T15:15:36.412Z,2.20
2022-11-12T15:30:56.234Z,2.70
2022-11-12T15:46:16.004Z,3.00
2022-11-12T16:17:44.795Z,2.72
2022-11-12T16:33:04.574Z,3.10
2022-11-12T16:48:24.634Z,3.42
2022-11-12T17:03:53.876Z,3.45
2022-11-12T17:19:14.681Z,3.60
2022-11-12T17:34:34.811Z,5.23
2022-11-12T17:49:54.608Z,5.10
2022-11-12T18:05:14.324Z,5.28
2022-11-12T18:20:34.708Z,5.57
2022-11-12T18:35:54.797Z,6.10
2022-11-12T18:51:14.583Z,5.00
2022-11-12T19:06:34.572Z,5.72
2022-11-12T19:21:54.333Z,4.93
2022-11-12T19:52:55.052Z,4.30
2022-11-12T20:08:15.472Z,7.07
2022-11-12T20:23:35.497Z,5.00
2022-11-12T20:38:55.398Z,4.20
2022-11-12T20:54:15.614Z,3.80
2022-11-12T21:09:35.329Z,3.33
2022-11-12T21:24:55.091Z,4.00
2022-11-12T21:40:16.076Z,4.43
2022-11-12T21:55:35.861Z,4.50
2022-11-12T22:10:55.711Z,5.30
2022-11-12T22:26:15.608Z,5.07
2022-11-12T22:41:35.326Z,4.07
2022-11-12T22:56:55.081Z,5.80
2022-11-12T23:12:14.821Z,6.43
2022-11-12T23:27:34.536Z,5.57
2022-11-12T23:42:54.116Z,6.00
2022-11-12T23:58:14.006Z,5.13
